sensor_id;sensor_type;location;lat;lon;timestamp;P1;durP1;ratioP1;P2;durP2;ratioP2
3149;SDS011;32503;47.748;8.960;2022-08-18T00:00:26;7.27;;;6.77;;
3149;SDS011;32503;47.748;8.960;2022-08-18T00:02:55;6.70;;;6.40;;
3149;SDS011;32503;47.748;8.960;2022-08-18T00:05:29;6.13;;;5.70;;
3149;SDS011;32503;47.748;8.960;2022-08-18T00:07:57;6.23;;;5.93;;
3149;SDS011;32503;47.748;8.960;2022-08-18T00:10:24;6.70;;;6.13;;
3149;SDS011;32503;47.748;8.960;2022-08-18T00:12:52;7.63;;;7.03;;
3149;SDS011;32503;47.748;8.960;2022-08-18T00:15:19;6.50;;;6.20;;
3149;SDS011;32503;47.748;8.960;2022-08-18T00:17:47;6.47;;;6.17;;
3149;SDS011;32503;47.748;8.960;2022-08-18T00:20:17;6.43;;;6.10;;
3149;SDS011;32503;47.748;8.960;2022-08-18T00:22:47;6.70;;;6.30;;
3149;SDS011;32503;47.748;8.960;2022-08-18T00:25:15;7.40;;;7.00;;
3149;SDS011;32503;47.748;8.960;2022-08-18T00:27:44;7.00;;;6.47;;
3149;SDS011;32503;47.748;8.960;2022-08-18T00:30:12;6.87;;;6.53;;
3149;SDS011;32503;47.748;8.960;2022-08-18T00:32:44;7.40;;;7.00;;
3149;SDS011;32503;47.748;8.960;2022-08-18T00:35:17;6.13;;;5.83;;
3149;SDS011;32503;47.748;8.960;2022-08-18T00:37:50;6.60;;;6.30;;
3149;SDS011;32503;47.748;8.960;2022-08-18T00:40:19;6.73;;;6.33;;
3149;SDS011;32503;47.748;8.960;2022-08-18T00:42:51;6.97;;;6.47;;
3149;SDS011;32503;47.748;8.960;2022-08-18T00:45:23;6.43;;;6.03;;
3149;SDS011;32503;47.748;8.960;2022-08-18T00:47:56;6.03;;;5.73;;
3149;SDS011;32503;47.748;8.960;2022-08-18T00:50:26;7.57;;;7.03;;
3149;SDS011;32503;47.748;8.960;2022-08-18T00:53:00;6.83;;;6.43;;
3149;SDS011;32503;47.748;8.960;2022-08-18T00:55:31;7.50;;;7.00;;
3149;SDS011;32503;47.748;8.960;2022-08-18T00:58:01;6.60;;;6.20;;
3149;SDS011;32503;47.748;8.960;2022-08-18T01:00:33;6.40;;;5.90;;
3149;SDS011;32503;47.748;8.960;2022-08-18T01:03:03;6.80;;;6.40;;
3149;SDS011;32503;47.748;8.960;2022-08-18T01:05:42;9.07;;;7.80;;
3149;SDS011;32503;47.748;8.960;2022-08-18T01:08:16;6.60;;;6.20;;
3149;SDS011;32503;47.748;8.960;2022-08-18T01:10:43;7.37;;;6.93;;
3149;SDS011;32503;47.748;8.960;2022-08-18T01:13:11;6.60;;;6.20;;
3149;SDS011;32503;47.748;8.960;2022-08-18T01:15:38;6.87;;;6.47;;
3149;SDS011;32503;47.748;8.960;2022-08-18T01:18:06;7.50;;;7.00;;
3149;SDS011;32503;47.748;8.960;2022-08-18T01:20:59;7.10;;;6.77;;
3149;SDS011;32503;47.748;8.960;2022-08-18T01:23:52;6.43;;;6.07;;
3149;SDS011;32503;47.748;8.960;2022-08-18T01:26:20;7.37;;;6.97;;
3149;SDS011;32503;47.748;8.960;2022-08-18T01:28:48;8.77;;;8.27;;
3149;SDS011;32503;47.748;8.960;2022-08-18T01:34:02;8.70;;;8.10;;
3149;SDS011;32503;47.748;8.960;2022-08-18T01:36:31;8.00;;;7.50;;
3149;SDS011;32503;47.748;8.960;2022-08-18T01:39:03;8.97;;;8.30;;
3149;SDS011;32503;47.748;8.960;2022-08-18T01:41:32;7.70;;;7.20;;
3149;SDS011;32503;47.748;8.960;2022-08-18T01:44:00;7.63;;;7.13;;
3149;SDS011;32503;47.748;8.960;2022-08-18T01:46:29;7.37;;;6.87;;
3149;SDS011;32503;47.748;8.960;2022-08-18T01:48:59;6.37;;;5.97;;
3149;SDS011;32503;47.748;8.960;2022-08-18T01:51:27;7.63;;;7.13;;
3149;SDS011;32503;47.748;8.960;2022-08-18T01:53:58;8.03;;;7.30;;
3149;SDS011;32503;47.748;8.960;2022-08-18T01:56:28;7.57;;;7.17;;
3149;SDS011;32503;47.748;8.960;2022-08-18T01:58:55;7.20;;;6.80;;
3149;SDS011;32503;47.748;8.960;2022-08-18T02:01:23;8.43;;;7.83;;
3149;SDS011;32503;47.748;8.960;2022-08-18T02:03:52;7.03;;;6.63;;
3149;SDS011;32503;47.748;8.960;2022-08-18T02:06:24;8.17;;;7.57;;
3149;SDS011;32503;47.748;8.960;2022-08-18T02:08:51;8.63;;;7.97;;
3149;SDS011;32503;47.748;8.960;2022-08-18T02:11:18;7.67;;;6.90;;
3149;SDS011;32503;47.748;8.960;2022-08-18T02:13:47;6.50;;;6.17;;
3149;SDS011;32503;47.748;8.960;2022-08-18T02:16:14;8.40;;;7.80;;
3149;SDS011;32503;47.748;8.960;2022-08-18T02:18:42;8.40;;;7.70;;
3149;SDS011;32503;47.748;8.960;2022-08-18T02:21:09;8.50;;;7.80;;
3149;SDS011;32503;47.748;8.960;2022-08-18T02:23:40;8.53;;;7.60;;
3149;SDS011;32503;47.748;8.960;2022-08-18T02:26:10;8.37;;;7.87;;
3149;SDS011;32503;47.748;8.960;2022-08-18T02:28:41;7.30;;;6.80;;
3149;SDS011;32503;47.748;8.960;2022-08-18T02:31:11;7.70;;;7.30;;
3149;SDS011;32503;47.748;8.960;2022-08-18T02:33:40;8.63;;;8.03;;
3149;SDS011;32503;47.748;8.960;2022-08-18T02:36:08;8.37;;;7.77;;
3149;SDS011;32503;47.748;8.960;2022-08-18T02:38:36;7.30;;;6.80;;
3149;SDS011;32503;47.748;8.960;2022-08-18T02:41:04;7.63;;;7.13;;
3149;SDS011;32503;47.748;8.960;2022-08-18T02:43:35;6.97;;;6.57;;
3149;SDS011;32503;47.748;8.960;2022-08-18T02:46:03;7.43;;;7.00;;
3149;SDS011;32503;47.748;8.960;2022-08-18T02:48:33;8.40;;;7.80;;
3149;SDS011;32503;47.748;8.960;2022-08-18T02:51:01;9.10;;;8.50;;
3149;SDS011;32503;47.748;8.960;2022-08-18T02:53:30;7.33;;;6.93;;
3149;SDS011;32503;47.748;8.960;2022-08-18T02:56:03;7.50;;;7.03;;
3149;SDS011;32503;47.748;8.960;2022-08-18T02:58:47;6.77;;;6.30;;
3149;SDS011;32503;47.748;8.960;2022-08-18T03:01:17;8.17;;;7.77;;
3149;SDS011;32503;47.748;8.960;2022-08-18T03:03:46;7.57;;;6.97;;
3149;SDS011;32503;47.748;8.960;2022-08-18T03:06:14;8.57;;;7.97;;
3149;SDS011;32503;47.748;8.960;2022-08-18T03:08:42;9.07;;;7.33;;
3149;SDS011;32503;47.748;8.960;2022-08-18T03:11:12;8.23;;;7.63;;
3149;SDS011;32503;47.748;8.960;2022-08-18T03:13:41;9.10;;;8.40;;
3149;SDS011;32503;47.748;8.960;2022-08-18T03:16:08;8.80;;;8.13;;
3149;SDS011;32503;47.748;8.960;2022-08-18T03:18:35;7.70;;;7.20;;
3149;SDS011;32503;47.748;8.960;2022-08-18T03:21:07;8.93;;;8.33;;
3149;SDS011;32503;47.748;8.960;2022-08-18T03:23:39;9.67;;;8.87;;
3149;SDS011;32503;47.748;8.960;2022-08-18T03:26:07;8.80;;;8.10;;
3149;SDS011;32503;47.748;8.960;2022-08-18T03:28:36;9.70;;;8.90;;
3149;SDS011;32503;47.748;8.960;2022-08-18T03:31:05;9.53;;;8.63;;
3149;SDS011;32503;47.748;8.960;2022-08-18T03:33:32;7.93;;;7.43;;
3149;SDS011;32503;47.748;8.960;2022-08-18T03:36:02;8.80;;;8.17;;
3149;SDS011;32503;47.748;8.960;2022-08-18T03:38:31;8.83;;;8.17;;
3149;SDS011;32503;47.748;8.960;2022-08-18T03:40:59;10.20;;;9.40;;
3149;SDS011;32503;47.748;8.960;2022-08-18T03:43:26;9.30;;;8.60;;
3149;SDS011;32503;47.748;8.960;2022-08-18T03:45:57;10.10;;;9.13;;
3149;SDS011;32503;47.748;8.960;2022-08-18T03:48:27;11.30;;;9.47;;
3149;SDS011;32503;47.748;8.960;2022-08-18T03:50:54;8.67;;;8.00;;
3149;SDS011;32503;47.748;8.960;2022-08-18T03:53:27;9.23;;;8.53;;
3149;SDS011;32503;47.748;8.960;2022-08-18T03:55:56;9.93;;;9.07;;
3149;SDS011;32503;47.748;8.960;2022-08-18T03:58:23;9.60;;;8.90;;
3149;SDS011;32503;47.748;8.960;2022-08-18T04:00:50;9.80;;;9.13;;
3149;SDS011;32503;47.748;8.960;2022-08-18T04:03:17;9.63;;;8.80;;
3149;SDS011;32503;47.748;8.960;2022-08-18T04:05:45;9.60;;;8.83;;
3149;SDS011;32503;47.748;8.960;2022-08-18T04:08:12;10.30;;;9.30;;
3149;SDS011;32503;47.748;8.960;2022-08-18T04:10:40;9.00;;;8.13;;
3149;SDS011;32503;47.748;8.960;2022-08-18T04:13:10;9.20;;;8.50;;
3149;SDS011;32503;47.748;8.960;2022-08-18T04:15:37;8.37;;;7.77;;
3149;SDS011;32503;47.748;8.960;2022-08-18T04:18:05;9.47;;;8.63;;
3149;SDS011;32503;47.748;8.960;2022-08-18T04:20:32;9.47;;;8.77;;
3149;SDS011;32503;47.748;8.960;2022-08-18T04:23:00;8.87;;;8.20;;
3149;SDS011;32503;47.748;8.960;2022-08-18T04:25:27;10.40;;;9.60;;
3149;SDS011;32503;47.748;8.960;2022-08-18T04:27:56;9.07;;;8.30;;
3149;SDS011;32503;47.748;8.960;2022-08-18T04:30:26;8.97;;;8.30;;
3149;SDS011;32503;47.748;8.960;2022-08-18T04:32:53;8.90;;;8.17;;
3149;SDS011;32503;47.748;8.960;2022-08-18T04:35:21;8.57;;;7.93;;
3149;SDS011;32503;47.748;8.960;2022-08-18T04:37:48;9.57;;;8.80;;
3149;SDS011;32503;47.748;8.960;2022-08-18T04:40:15;8.70;;;8.10;;
3149;SDS011;32503;47.748;8.960;2022-08-18T04:42:43;9.53;;;8.80;;
3149;SDS011;32503;47.748;8.960;2022-08-18T04:45:11;8.20;;;7.50;;
3149;SDS011;32503;47.748;8.960;2022-08-18T04:47:39;8.97;;;8.37;;
3149;SDS011;32503;47.748;8.960;2022-08-18T04:50:07;9.07;;;8.47;;
3149;SDS011;32503;47.748;8.960;2022-08-18T04:52:36;10.67;;;9.77;;
3149;SDS011;32503;47.748;8.960;2022-08-18T04:55:20;9.43;;;8.53;;
3149;SDS011;32503;47.748;8.960;2022-08-18T04:57:48;10.00;;;9.20;;
3149;SDS011;32503;47.748;8.960;2022-08-18T05:00:15;8.73;;;8.17;;
3149;SDS011;32503;47.748;8.960;2022-08-18T05:02:44;9.30;;;8.70;;
3149;SDS011;32503;47.748;8.960;2022-08-18T05:05:12;9.83;;;9.03;;
3149;SDS011;32503;47.748;8.960;2022-08-18T05:07:42;9.70;;;8.90;;
3149;SDS011;32503;47.748;8.960;2022-08-18T05:10:10;8.17;;;7.67;;
3149;SDS011;32503;47.748;8.960;2022-08-18T05:12:38;9.50;;;8.60;;
3149;SDS011;32503;47.748;8.960;2022-08-18T05:15:06;8.40;;;7.70;;
3149;SDS011;32503;47.748;8.960;2022-08-18T05:17:35;9.20;;;8.30;;
3149;SDS011;32503;47.748;8.960;2022-08-18T05:20:05;9.30;;;8.50;;
3149;SDS011;32503;47.748;8.960;2022-08-18T05:22:37;9.20;;;8.40;;
3149;SDS011;32503;47.748;8.960;2022-08-18T05:25:06;9.80;;;8.97;;
3149;SDS011;32503;47.748;8.960;2022-08-18T05:27:36;8.83;;;8.03;;
3149;SDS011;32503;47.748;8.960;2022-08-18T05:30:08;8.70;;;8.00;;
3149;SDS011;32503;47.748;8.960;2022-08-18T05:32:39;8.67;;;7.97;;
3149;SDS011;32503;47.748;8.960;2022-08-18T05:35:10;9.03;;;8.33;;
3149;SDS011;32503;47.748;8.960;2022-08-18T05:37:44;8.47;;;7.90;;
3149;SDS011;32503;47.748;8.960;2022-08-18T05:40:30;9.70;;;8.80;;
3149;SDS011;32503;47.748;8.960;2022-08-18T05:42:59;9.53;;;8.77;;
3149;SDS011;32503;47.748;8.960;2022-08-18T05:45:28;9.57;;;8.73;;
3149;SDS011;32503;47.748;8.960;2022-08-18T05:47:58;9.07;;;8.33;;
3149;SDS011;32503;47.748;8.960;2022-08-18T05:50:27;9.20;;;8.50;;
3149;SDS011;32503;47.748;8.960;2022-08-18T05:53:00;8.37;;;7.77;;
3149;SDS011;32503;47.748;8.960;2022-08-18T05:55:33;9.70;;;8.80;;
3149;SDS011;32503;47.748;8.960;2022-08-18T05:58:23;9.20;;;8.37;;
3149;SDS011;32503;47.748;8.960;2022-08-18T06:00:56;9.23;;;8.50;;
3149;SDS011;32503;47.748;8.960;2022-08-18T06:03:29;11.27;;;10.37;;
3149;SDS011;32503;47.748;8.960;2022-08-18T06:06:04;10.97;;;9.87;;
3149;SDS011;32503;47.748;8.960;2022-08-18T06:08:39;9.93;;;9.13;;
3149;SDS011;32503;47.748;8.960;2022-08-18T06:11:11;11.53;;;10.50;;
3149;SDS011;32503;47.748;8.960;2022-08-18T06:13:40;9.67;;;8.97;;
3149;SDS011;32503;47.748;8.960;2022-08-18T06:16:18;10.30;;;9.50;;
3149;SDS011;32503;47.748;8.960;2022-08-18T06:18:58;9.47;;;8.67;;
3149;SDS011;32503;47.748;8.960;2022-08-18T06:21:40;10.40;;;9.63;;
3149;SDS011;32503;47.748;8.960;2022-08-18T06:24:19;10.10;;;9.20;;
3149;SDS011;32503;47.748;8.960;2022-08-18T06:26:56;10.70;;;9.70;;
3149;SDS011;32503;47.748;8.960;2022-08-18T06:29:37;12.03;;;10.93;;
3149;SDS011;32503;47.748;8.960;2022-08-18T06:32:32;12.50;;;11.17;;
3149;SDS011;32503;47.748;8.960;2022-08-18T06:35:14;12.03;;;11.00;;
3149;SDS011;32503;47.748;8.960;2022-08-18T06:37:50;10.80;;;9.87;;
3149;SDS011;32503;47.748;8.960;2022-08-18T06:40:41;11.20;;;10.20;;
3149;SDS011;32503;47.748;8.960;2022-08-18T06:43:12;9.73;;;9.03;;
3149;SDS011;32503;47.748;8.960;2022-08-18T06:45:42;11.53;;;10.33;;
3149;SDS011;32503;47.748;8.960;2022-08-18T06:48:17;14.23;;;12.70;;
3149;SDS011;32503;47.748;8.960;2022-08-18T06:50:56;13.70;;;11.30;;
3149;SDS011;32503;47.748;8.960;2022-08-18T06:56:23;10.00;;;9.20;;
3149;SDS011;32503;47.748;8.960;2022-08-18T06:59:12;11.23;;;10.30;;
3149;SDS011;32503;47.748;8.960;2022-08-18T07:01:49;9.00;;;8.30;;
3149;SDS011;32503;47.748;8.960;2022-08-18T07:07:29;9.53;;;8.83;;
3149;SDS011;32503;47.748;8.960;2022-08-18T07:10:02;10.27;;;9.47;;
3149;SDS011;32503;47.748;8.960;2022-08-18T07:12:43;9.20;;;8.53;;
3149;SDS011;32503;47.748;8.960;2022-08-18T07:15:10;11.13;;;9.27;;
3149;SDS011;32503;47.748;8.960;2022-08-18T07:17:38;10.40;;;9.60;;
3149;SDS011;32503;47.748;8.960;2022-08-18T07:20:07;10.30;;;9.50;;
3149;SDS011;32503;47.748;8.960;2022-08-18T07:22:54;10.00;;;9.30;;
3149;SDS011;32503;47.748;8.960;2022-08-18T07:25:27;10.43;;;9.60;;
3149;SDS011;32503;47.748;8.960;2022-08-18T07:27:57;9.47;;;8.77;;
3149;SDS011;32503;47.748;8.960;2022-08-18T07:30:28;11.00;;;10.03;;
3149;SDS011;32503;47.748;8.960;2022-08-18T07:33:03;10.17;;;9.50;;
3149;SDS011;32503;47.748;8.960;2022-08-18T07:35:42;10.13;;;9.27;;
3149;SDS011;32503;47.748;8.960;2022-08-18T07:38:16;9.90;;;9.20;;
3149;SDS011;32503;47.748;8.960;2022-08-18T07:40:52;9.93;;;9.23;;
3149;SDS011;32503;47.748;8.960;2022-08-18T07:43:28;11.20;;;10.20;;
3149;SDS011;32503;47.748;8.960;2022-08-18T07:46:03;9.73;;;9.03;;
3149;SDS011;32503;47.748;8.960;2022-08-18T07:48:37;13.13;;;9.93;;
3149;SDS011;32503;47.748;8.960;2022-08-18T07:51:06;13.03;;;11.83;;
3149;SDS011;32503;47.748;8.960;2022-08-18T07:53:49;10.30;;;9.50;;
3149;SDS011;32503;47.748;8.960;2022-08-18T07:56:30;10.47;;;9.63;;
3149;SDS011;32503;47.748;8.960;2022-08-18T07:59:06;10.93;;;10.13;;
3149;SDS011;32503;47.748;8.960;2022-08-18T08:01:40;11.70;;;10.70;;
3149;SDS011;32503;47.748;8.960;2022-08-18T08:04:18;10.23;;;9.43;;
3149;SDS011;32503;47.748;8.960;2022-08-18T08:07:04;11.77;;;9.70;;
3149;SDS011;32503;47.748;8.960;2022-08-18T08:09:39;11.37;;;10.33;;
3149;SDS011;32503;47.748;8.960;2022-08-18T08:12:21;10.97;;;10.17;;
3149;SDS011;32503;47.748;8.960;2022-08-18T08:14:59;10.53;;;9.83;;
3149;SDS011;32503;47.748;8.960;2022-08-18T08:17:40;11.00;;;10.00;;
3149;SDS011;32503;47.748;8.960;2022-08-18T08:20:20;10.80;;;10.03;;
3149;SDS011;32503;47.748;8.960;2022-08-18T08:22:56;11.40;;;10.40;;
3149;SDS011;32503;47.748;8.960;2022-08-18T08:25:40;11.03;;;10.33;;
3149;SDS011;32503;47.748;8.960;2022-08-18T08:28:24;10.10;;;9.30;;
3149;SDS011;32503;47.748;8.960;2022-08-18T08:31:08;10.57;;;9.83;;
3149;SDS011;32503;47.748;8.960;2022-08-18T08:33:40;9.33;;;8.63;;
3149;SDS011;32503;47.748;8.960;2022-08-18T08:36:16;11.97;;;11.10;;
3149;SDS011;32503;47.748;8.960;2022-08-18T08:38:51;11.53;;;10.27;;
3149;SDS011;32503;47.748;8.960;2022-08-18T08:41:27;11.40;;;10.60;;
3149;SDS011;32503;47.748;8.960;2022-08-18T08:44:08;10.70;;;10.00;;
3149;SDS011;32503;47.748;8.960;2022-08-18T08:46:41;10.37;;;9.67;;
3149;SDS011;32503;47.748;8.960;2022-08-18T08:49:18;11.93;;;10.93;;
3149;SDS011;32503;47.748;8.960;2022-08-18T08:51:54;10.93;;;10.20;;
3149;SDS011;32503;47.748;8.960;2022-08-18T08:54:28;10.63;;;9.83;;
3149;SDS011;32503;47.748;8.960;2022-08-18T08:57:07;11.40;;;10.60;;
3149;SDS011;32503;47.748;8.960;2022-08-18T08:59:38;12.10;;;11.10;;
3149;SDS011;32503;47.748;8.960;2022-08-18T09:02:13;11.37;;;10.57;;
3149;SDS011;32503;47.748;8.960;2022-08-18T09:04:59;10.93;;;10.17;;
3149;SDS011;32503;47.748;8.960;2022-08-18T09:07:38;9.73;;;9.03;;
3149;SDS011;32503;47.748;8.960;2022-08-18T09:10:34;10.20;;;9.47;;
3149;SDS011;32503;47.748;8.960;2022-08-18T09:17:06;11.37;;;10.57;;
3149;SDS011;32503;47.748;8.960;2022-08-18T09:20:11;12.20;;;11.20;;
3149;SDS011;32503;47.748;8.960;2022-08-18T09:23:04;11.03;;;10.13;;
3149;SDS011;32503;47.748;8.960;2022-08-18T09:25:44;9.37;;;8.77;;
3149;SDS011;32503;47.748;8.960;2022-08-18T09:28:16;11.73;;;10.83;;
3149;SDS011;32503;47.748;8.960;2022-08-18T09:30:50;9.37;;;8.63;;
3149;SDS011;32503;47.748;8.960;2022-08-18T09:36:59;9.63;;;9.03;;
3149;SDS011;32503;47.748;8.960;2022-08-18T09:39:38;9.30;;;8.60;;
3149;SDS011;32503;47.748;8.960;2022-08-18T09:42:31;10.53;;;9.83;;
3149;SDS011;32503;47.748;8.960;2022-08-18T09:45:09;10.50;;;9.90;;
3149;SDS011;32503;47.748;8.960;2022-08-18T09:48:01;10.07;;;9.37;;
3149;SDS011;32503;47.748;8.960;2022-08-18T09:51:13;10.47;;;9.67;;
3149;SDS011;32503;47.748;8.960;2022-08-18T09:57:06;11.00;;;10.30;;
3149;SDS011;32503;47.748;8.960;2022-08-18T09:59:50;9.77;;;9.23;;
3149;SDS011;32503;47.748;8.960;2022-08-18T10:05:55;9.77;;;8.93;;
3149;SDS011;32503;47.748;8.960;2022-08-18T10:08:49;11.83;;;10.93;;
3149;SDS011;32503;47.748;8.960;2022-08-18T10:11:53;12.00;;;11.00;;
3149;SDS011;32503;47.748;8.960;2022-08-18T10:14:53;10.07;;;9.27;;
3149;SDS011;32503;47.748;8.960;2022-08-18T10:17:48;11.13;;;10.23;;
3149;SDS011;32503;47.748;8.960;2022-08-18T10:20:41;10.53;;;9.90;;
3149;SDS011;32503;47.748;8.960;2022-08-18T10:32:21;9.80;;;9.20;;
3149;SDS011;32503;47.748;8.960;2022-08-18T10:41:19;9.80;;;9.23;;
3149;SDS011;32503;47.748;8.960;2022-08-18T10:43:54;11.83;;;10.63;;
3149;SDS011;32503;47.748;8.960;2022-08-18T10:46:25;10.10;;;9.50;;
3149;SDS011;32503;47.748;8.960;2022-08-18T10:48:58;9.23;;;8.63;;
3149;SDS011;32503;47.748;8.960;2022-08-18T10:57:48;12.13;;;9.57;;
3149;SDS011;32503;47.748;8.960;2022-08-18T11:00:42;11.43;;;10.53;;
3149;SDS011;32503;47.748;8.960;2022-08-18T11:03:24;10.50;;;9.80;;
3149;SDS011;32503;47.748;8.960;2022-08-18T11:06:06;11.43;;;10.53;;
3149;SDS011;32503;47.748;8.960;2022-08-18T11:08:40;11.53;;;10.60;;
3149;SDS011;32503;47.748;8.960;2022-08-18T11:11:12;9.73;;;9.13;;
3149;SDS011;32503;47.748;8.960;2022-08-18T11:13:50;10.20;;;9.50;;
3149;SDS011;32503;47.748;8.960;2022-08-18T11:16:31;11.67;;;10.67;;
3149;SDS011;32503;47.748;8.960;2022-08-18T11:19:09;9.47;;;8.77;;
3149;SDS011;32503;47.748;8.960;2022-08-18T11:21:42;9.80;;;9.10;;
3149;SDS011;32503;47.748;8.960;2022-08-18T11:24:12;9.70;;;8.93;;
3149;SDS011;32503;47.748;8.960;2022-08-18T11:26:43;10.10;;;9.30;;
3149;SDS011;32503;47.748;8.960;2022-08-18T11:29:22;9.60;;;9.00;;
3149;SDS011;32503;47.748;8.960;2022-08-18T11:31:56;9.00;;;8.50;;
3149;SDS011;32503;47.748;8.960;2022-08-18T11:34:33;8.30;;;7.70;;
3149;SDS011;32503;47.748;8.960;2022-08-18T11:37:05;8.70;;;8.30;;
3149;SDS011;32503;47.748;8.960;2022-08-18T11:39:41;9.40;;;8.80;;
3149;SDS011;32503;47.748;8.960;2022-08-18T11:42:14;10.20;;;9.50;;
3149;SDS011;32503;47.748;8.960;2022-08-18T11:44:45;9.40;;;8.90;;
3149;SDS011;32503;47.748;8.960;2022-08-18T11:47:14;10.47;;;9.70;;
3149;SDS011;32503;47.748;8.960;2022-08-18T11:49:47;9.93;;;9.13;;
3149;SDS011;32503;47.748;8.960;2022-08-18T11:52:22;9.70;;;9.10;;
3149;SDS011;32503;47.748;8.960;2022-08-18T11:54:57;9.03;;;8.53;;
3149;SDS011;32503;47.748;8.960;2022-08-18T11:57:27;8.53;;;8.13;;
3149;SDS011;32503;47.748;8.960;2022-08-18T12:03:28;7.83;;;7.43;;
3149;SDS011;32503;47.748;8.960;2022-08-18T12:06:09;8.20;;;7.80;;
3149;SDS011;32503;47.748;8.960;2022-08-18T12:08:56;8.30;;;7.80;;
3149;SDS011;32503;47.748;8.960;2022-08-18T12:11:28;7.60;;;7.20;;
3149;SDS011;32503;47.748;8.960;2022-08-18T12:13:59;8.43;;;7.93;;
3149;SDS011;32503;47.748;8.960;2022-08-18T12:16:34;8.07;;;7.57;;
3149;SDS011;32503;47.748;8.960;2022-08-18T12:19:05;7.77;;;7.37;;
3149;SDS011;32503;47.748;8.960;2022-08-18T12:21:38;6.93;;;6.63;;
3149;SDS011;32503;47.748;8.960;2022-08-18T12:24:09;7.40;;;6.83;;
3149;SDS011;32503;47.748;8.960;2022-08-18T12:26:45;7.30;;;7.00;;
3149;SDS011;32503;47.748;8.960;2022-08-18T12:29:12;7.47;;;7.00;;
3149;SDS011;32503;47.748;8.960;2022-08-18T12:31:42;8.00;;;7.50;;
3149;SDS011;32503;47.748;8.960;2022-08-18T12:34:09;7.90;;;7.40;;
3149;SDS011;32503;47.748;8.960;2022-08-18T12:36:37;7.13;;;6.83;;
3149;SDS011;32503;47.748;8.960;2022-08-18T12:39:04;7.27;;;6.77;;
3149;SDS011;32503;47.748;8.960;2022-08-18T12:41:31;7.27;;;6.97;;
3149;SDS011;32503;47.748;8.960;2022-08-18T12:43:58;7.20;;;6.80;;
3149;SDS011;32503;47.748;8.960;2022-08-18T12:46:25;8.53;;;7.93;;
3149;SDS011;32503;47.748;8.960;2022-08-18T12:48:54;8.10;;;7.60;;
3149;SDS011;32503;47.748;8.960;2022-08-18T12:51:21;7.80;;;7.30;;
3149;SDS011;32503;47.748;8.960;2022-08-18T12:53:49;7.50;;;6.97;;
3149;SDS011;32503;47.748;8.960;2022-08-18T12:56:18;7.67;;;7.17;;
3149;SDS011;32503;47.748;8.960;2022-08-18T12:58:49;8.77;;;8.27;;
3149;SDS011;32503;47.748;8.960;2022-08-18T13:01:18;7.97;;;7.47;;
3149;SDS011;32503;47.748;8.960;2022-08-18T13:03:46;7.50;;;7.10;;
3149;SDS011;32503;47.748;8.960;2022-08-18T13:06:14;7.97;;;7.27;;
3149;SDS011;32503;47.748;8.960;2022-08-18T13:08:42;6.53;;;6.23;;
3149;SDS011;32503;47.748;8.960;2022-08-18T13:11:09;8.17;;;7.70;;
3149;SDS011;32503;47.748;8.960;2022-08-18T13:13:36;7.50;;;7.13;;
3149;SDS011;32503;47.748;8.960;2022-08-18T13:16:05;7.93;;;7.43;;
3149;SDS011;32503;47.748;8.960;2022-08-18T13:18:33;8.30;;;7.90;;
3149;SDS011;32503;47.748;8.960;2022-08-18T13:21:01;6.53;;;6.23;;
3149;SDS011;32503;47.748;8.960;2022-08-18T13:23:32;7.63;;;7.13;;
3149;SDS011;32503;47.748;8.960;2022-08-18T13:25:59;7.40;;;6.90;;
3149;SDS011;32503;47.748;8.960;2022-08-18T13:28:30;6.53;;;6.23;;
3149;SDS011;32503;47.748;8.960;2022-08-18T13:30:59;6.90;;;6.70;;
3149;SDS011;32503;47.748;8.960;2022-08-18T13:33:26;7.27;;;6.90;;
3149;SDS011;32503;47.748;8.960;2022-08-18T13:35:54;7.50;;;7.20;;
3149;SDS011;32503;47.748;8.960;2022-08-18T13:38:22;7.10;;;6.80;;
3149;SDS011;32503;47.748;8.960;2022-08-18T13:40:51;8.37;;;7.80;;
3149;SDS011;32503;47.748;8.960;2022-08-18T13:43:21;8.47;;;7.87;;
3149;SDS011;32503;47.748;8.960;2022-08-18T13:45:54;7.83;;;7.53;;
3149;SDS011;32503;47.748;8.960;2022-08-18T13:48:21;8.33;;;7.50;;
3149;SDS011;32503;47.748;8.960;2022-08-18T13:50:49;7.60;;;7.30;;
3149;SDS011;32503;47.748;8.960;2022-08-18T13:53:18;8.30;;;7.80;;
3149;SDS011;32503;47.748;8.960;2022-08-18T13:55:46;8.90;;;8.30;;
3149;SDS011;32503;47.748;8.960;2022-08-18T13:58:15;8.60;;;8.00;;
3149;SDS011;32503;47.748;8.960;2022-08-18T14:00:42;9.20;;;8.27;;
3149;SDS011;32503;47.748;8.960;2022-08-18T14:03:10;7.53;;;7.23;;
3149;SDS011;32503;47.748;8.960;2022-08-18T14:05:38;7.40;;;7.10;;
3149;SDS011;32503;47.748;8.960;2022-08-18T14:08:05;7.50;;;7.20;;
3149;SDS011;32503;47.748;8.960;2022-08-18T14:10:33;8.37;;;7.97;;
3149;SDS011;32503;47.748;8.960;2022-08-18T14:13:00;8.60;;;8.10;;
3149;SDS011;32503;47.748;8.960;2022-08-18T14:15:28;8.63;;;8.00;;
3149;SDS011;32503;47.748;8.960;2022-08-18T14:18:00;8.20;;;7.70;;
3149;SDS011;32503;47.748;8.960;2022-08-18T14:20:27;9.70;;;9.20;;
3149;SDS011;32503;47.748;8.960;2022-08-18T14:23:12;8.33;;;7.97;;
3149;SDS011;32503;47.748;8.960;2022-08-18T14:25:56;8.40;;;7.90;;
3149;SDS011;32503;47.748;8.960;2022-08-18T14:28:41;8.20;;;7.70;;
3149;SDS011;32503;47.748;8.960;2022-08-18T14:31:09;8.40;;;7.90;;
3149;SDS011;32503;47.748;8.960;2022-08-18T14:33:36;8.37;;;7.97;;
3149;SDS011;32503;47.748;8.960;2022-08-18T14:36:04;8.67;;;8.23;;
3149;SDS011;32503;47.748;8.960;2022-08-18T14:38:31;9.03;;;8.53;;
3149;SDS011;32503;47.748;8.960;2022-08-18T14:41:00;8.60;;;8.23;;
3149;SDS011;32503;47.748;8.960;2022-08-18T14:43:30;7.77;;;7.30;;
3149;SDS011;32503;47.748;8.960;2022-08-18T14:45:57;9.20;;;8.60;;
3149;SDS011;32503;47.748;8.960;2022-08-18T14:48:26;8.50;;;7.97;;
3149;SDS011;32503;47.748;8.960;2022-08-18T14:50:54;7.90;;;7.50;;
3149;SDS011;32503;47.748;8.960;2022-08-18T14:53:25;8.50;;;8.10;;
3149;SDS011;32503;47.748;8.960;2022-08-18T14:55:55;8.07;;;7.73;;
3149;SDS011;32503;47.748;8.960;2022-08-18T14:58:24;7.80;;;7.43;;
3149;SDS011;32503;47.748;8.960;2022-08-18T15:00:53;7.80;;;7.40;;
3149;SDS011;32503;47.748;8.960;2022-08-18T15:03:21;8.47;;;8.07;;
3149;SDS011;32503;47.748;8.960;2022-08-18T15:05:51;7.77;;;7.33;;
3149;SDS011;32503;47.748;8.960;2022-08-18T15:08:18;9.33;;;8.43;;
3149;SDS011;32503;47.748;8.960;2022-08-18T15:10:45;7.73;;;7.33;;
3149;SDS011;32503;47.748;8.960;2022-08-18T15:13:13;7.33;;;7.03;;
3149;SDS011;32503;47.748;8.960;2022-08-18T15:15:40;8.63;;;8.13;;
3149;SDS011;32503;47.748;8.960;2022-08-18T15:18:08;8.23;;;7.73;;
3149;SDS011;32503;47.748;8.960;2022-08-18T15:20:36;8.37;;;7.87;;
3149;SDS011;32503;47.748;8.960;2022-08-18T15:23:20;7.97;;;7.47;;
3149;SDS011;32503;47.748;8.960;2022-08-18T15:26:05;8.37;;;7.87;;
3149;SDS011;32503;47.748;8.960;2022-08-18T15:28:32;8.50;;;8.03;;
3149;SDS011;32503;47.748;8.960;2022-08-18T15:30:59;7.83;;;7.43;;
3149;SDS011;32503;47.748;8.960;2022-08-18T15:33:27;8.60;;;8.00;;
3149;SDS011;32503;47.748;8.960;2022-08-18T15:35:54;7.40;;;7.00;;
3149;SDS011;32503;47.748;8.960;2022-08-18T15:38:23;9.10;;;8.60;;
3149;SDS011;32503;47.748;8.960;2022-08-18T15:40:52;7.90;;;7.50;;
3149;SDS011;32503;47.748;8.960;2022-08-18T15:43:22;7.93;;;7.43;;
3149;SDS011;32503;47.748;8.960;2022-08-18T15:45:50;9.50;;;7.27;;
3149;SDS011;32503;47.748;8.960;2022-08-18T15:48:18;7.87;;;7.47;;
3149;SDS011;32503;47.748;8.960;2022-08-18T15:50:48;7.00;;;6.70;;
3149;SDS011;32503;47.748;8.960;2022-08-18T15:53:16;7.67;;;7.27;;
3149;SDS011;32503;47.748;8.960;2022-08-18T15:55:47;8.10;;;7.60;;
3149;SDS011;32503;47.748;8.960;2022-08-18T15:58:14;6.97;;;6.67;;
3149;SDS011;32503;47.748;8.960;2022-08-18T16:00:42;7.33;;;6.93;;
3149;SDS011;32503;47.748;8.960;2022-08-18T16:03:12;7.30;;;7.00;;
3149;SDS011;32503;47.748;8.960;2022-08-18T16:05:49;7.37;;;6.93;;
3149;SDS011;32503;47.748;8.960;2022-08-18T16:08:19;7.00;;;6.70;;
3149;SDS011;32503;47.748;8.960;2022-08-18T16:10:50;12.63;;;11.47;;
3149;SDS011;32503;47.748;8.960;2022-08-18T16:13:18;40.80;;;32.87;;
3149;SDS011;32503;47.748;8.960;2022-08-18T16:15:45;36.10;;;24.83;;